Terminal Aerodrome Forecast
Issued by NWS

Home | Current Version | Previous Version | Text Only | Print | Product List | Glossary On
Versions: 1 2 3 4 5 6 7 8 9 10 11 12 13 14 15 16 17
000
FTUS46 KSGX 022320
TAFSNA
TAF
KSNA 022320Z 0300/0324 22008KT P6SM FEW250
     FM030300 23005KT P6SM FEW014
     FM030600 VRB03KT P6SM OVC010
     FM032000 22009KT P6SM SCT250=

USA.gov is the U.S. government's official web portal to all federal, state and local government web resources and services.